Time;durP1;ratioP1;P1;durP2;ratioP2;P2;SDS_P1;SDS_P2;PMS_P1;PMS_P2;Temp;Humidity;BMP_temperature;BMP_pressure;BME280_temperature;BME280_humidity;BME280_pressure;Samples;Min_cycle;Max_cycle;Signal;HPM_P1;HPM_P2
2024/02/11 00:01:18;;;;;;;56.28;30.92;;;12.60;99.90;;;;;;5040921;28;20021;-73
2024/02/11 00:03:43;;;;;;;62.92;32.67;;;12.50;99.90;;;;;;5030894;28;20039;-74
2024/02/11 00:06:11;;;;;;;59.47;34.75;;;12.50;99.90;;;;;;5033314;28;20037;-74
2024/02/11 00:08:40;;;;;;;55.10;31.88;;;12.50;99.90;;;;;;5036549;28;20096;-75
2024/02/11 00:11:07;;;;;;;44.45;28.80;;;12.50;99.90;;;;;;5037087;28;20449;-73
2024/02/11 00:13:33;;;;;;;48.63;30.80;;;12.50;99.90;;;;;;5033256;28;20490;-74
2024/02/11 00:16:00;;;;;;;47.60;29.73;;;12.50;99.90;;;;;;5026557;28;20144;-75
2024/02/11 00:18:28;;;;;;;60.20;32.97;;;12.50;99.90;;;;;;5027417;28;20116;-75
2024/02/11 00:20:54;;;;;;;96.00;37.47;;;12.50;99.90;;;;;;5030755;28;20375;-75
2024/02/11 00:23:22;;;;;;;53.85;30.55;;;12.50;99.90;;;;;;5028919;28;20029;-75
2024/02/11 00:25:51;;;;;;;46.05;30.08;;;12.50;99.90;;;;;;5029554;28;20017;-75
2024/02/11 00:28:21;;;;;;;52.17;31.08;;;12.50;99.90;;;;;;5031331;28;20079;-75
2024/02/11 00:30:50;;;;;;;52.95;30.92;;;12.50;99.90;;;;;;5031764;28;20029;-75
2024/02/11 00:33:19;;;;;;;48.60;29.83;;;12.40;99.90;;;;;;5030075;28;20091;-75
2024/02/11 00:35:46;;;;;;;48.25;29.08;;;12.50;99.90;;;;;;5031779;28;20129;-76
2024/02/11 00:38:15;;;;;;;51.35;30.45;;;12.50;99.90;;;;;;5031115;28;20091;-75
2024/02/11 00:40:42;;;;;;;46.67;30.08;;;12.50;99.90;;;;;;5030455;28;20033;-75
2024/02/11 00:43:07;;;;;;;52.10;32.80;;;12.50;99.90;;;;;;5030867;28;20684;-75
2024/02/11 00:45:35;;;;;;;49.15;30.95;;;12.50;99.90;;;;;;5031189;28;20025;-75
2024/02/11 00:48:03;;;;;;;47.67;28.70;;;12.50;99.90;;;;;;5033091;28;20025;-75
2024/02/11 00:50:31;;;;;;;45.97;28.13;;;12.50;99.90;;;;;;5035545;28;20021;-74
2024/02/11 00:52:57;;;;;;;53.15;33.80;;;12.50;99.90;;;;;;5035469;28;20022;-74
2024/02/11 00:55:23;;;;;;;59.53;33.03;;;12.50;99.90;;;;;;5034810;28;20024;-74
2024/02/11 00:57:49;;;;;;;48.33;30.20;;;12.50;99.90;;;;;;5034992;28;20064;-74
2024/02/11 01:00:16;;;;;;;52.22;30.48;;;12.50;99.90;;;;;;5034171;28;20056;-75
2024/02/11 01:02:42;;;;;;;49.17;31.38;;;12.50;99.90;;;;;;5034688;28;20522;-71
2024/02/11 01:05:12;;;;;;;69.53;34.55;;;12.50;99.90;;;;;;5035491;28;20022;-75
2024/02/11 01:07:39;;;;;;;57.03;33.63;;;12.40;99.90;;;;;;5035392;28;20050;-74
2024/02/11 01:10:10;;;;;;;53.47;31.23;;;12.40;99.90;;;;;;5040083;28;20108;-73
2024/02/11 01:12:39;;;;;;;49.13;29.57;;;12.40;99.90;;;;;;5055097;28;20075;-75
2024/02/11 01:15:07;;;;;;;69.13;33.50;;;12.40;99.90;;;;;;5053778;28;20414;-74
2024/02/11 01:17:33;;;;;;;57.28;34.30;;;12.40;99.90;;;;;;5054954;28;20040;-74
2024/02/11 01:19:59;;;;;;;72.65;37.00;;;12.40;99.90;;;;;;5053663;28;20032;-75
2024/02/11 01:22:24;;;;;;;59.60;35.15;;;12.50;99.90;;;;;;5034185;28;20475;-75
2024/02/11 01:24:50;;;;;;;55.88;31.17;;;12.40;99.90;;;;;;5037696;28;20665;-72
2024/02/11 01:27:16;;;;;;;53.60;32.38;;;12.40;99.90;;;;;;5036198;28;20029;-72
2024/02/11 01:29:41;;;;;;;61.50;35.55;;;12.40;99.90;;;;;;5034993;28;20427;-75
2024/02/11 01:32:09;;;;;;;53.60;31.98;;;12.40;99.90;;;;;;5033507;28;20493;-75
2024/02/11 01:34:34;;;;;;;77.85;38.20;;;12.40;99.90;;;;;;5034927;28;20421;-72
2024/02/11 01:37:00;;;;;;;62.22;35.55;;;12.50;99.90;;;;;;5034694;28;20095;-75
2024/02/11 01:39:26;;;;;;;65.75;38.28;;;12.30;99.90;;;;;;5034515;28;20033;-75
2024/02/11 01:41:52;;;;;;;82.57;38.80;;;12.30;99.90;;;;;;5033853;28;20486;-72
2024/02/11 01:44:18;;;;;;;50.42;33.00;;;12.30;99.90;;;;;;5034915;28;20493;-72
2024/02/11 01:46:45;;;;;;;59.85;33.30;;;12.40;99.90;;;;;;5034445;28;20029;-73
2024/02/11 01:49:11;;;;;;;61.78;34.58;;;12.40;99.90;;;;;;5034738;28;20390;-75
2024/02/11 01:51:43;;;;;;;64.95;37.88;;;12.40;99.90;;;;;;5034272;28;20029;-74
2024/02/11 01:54:12;;;;;;;63.17;36.15;;;12.40;99.90;;;;;;5034311;28;20025;-75
2024/02/11 01:56:40;;;;;;;59.25;35.88;;;12.40;99.90;;;;;;5034037;28;20017;-75
2024/02/11 01:59:09;;;;;;;60.42;34.53;;;12.40;99.90;;;;;;5033486;28;20032;-71
2024/02/11 02:01:36;;;;;;;56.70;33.92;;;12.40;99.90;;;;;;5033793;28;20579;-74
2024/02/11 02:04:06;;;;;;;56.33;34.90;;;12.40;99.90;;;;;;5034159;28;20022;-75
2024/02/11 02:06:33;;;;;;;58.50;35.53;;;12.40;99.90;;;;;;5032275;28;20033;-74
2024/02/11 02:09:03;;;;;;;54.58;32.58;;;12.40;99.90;;;;;;5037593;28;20018;-73
2024/02/11 02:11:35;;;;;;;51.25;33.25;;;12.50;99.90;;;;;;5054010;28;20107;-74
2024/02/11 02:14:01;;;;;;;56.40;35.95;;;12.40;99.90;;;;;;5054049;28;20052;-75
2024/02/11 02:16:43;;;;;;;74.47;36.63;;;12.40;99.90;;;;;;5053937;28;20028;-75
2024/02/11 02:19:09;;;;;;;56.67;34.58;;;12.40;99.90;;;;;;5053020;28;20041;-75
2024/02/11 02:21:47;;;;;;;56.42;34.90;;;12.50;99.90;;;;;;5037526;28;20032;-72
2024/02/11 02:24:13;;;;;;;51.45;34.22;;;12.40;99.90;;;;;;5032580;28;20057;-75
2024/02/11 02:26:40;;;;;;;49.58;31.75;;;12.40;99.90;;;;;;5031627;28;20029;-76
2024/02/11 02:29:05;;;;;;;70.55;38.72;;;12.40;99.90;;;;;;5033747;28;20088;-76
2024/02/11 02:31:31;;;;;;;57.70;35.70;;;12.40;99.90;;;;;;5032736;28;20025;-73
2024/02/11 02:33:57;;;;;;;54.65;34.47;;;12.30;99.90;;;;;;5033522;28;20053;-75
2024/02/11 02:36:24;;;;;;;54.72;32.95;;;12.30;99.90;;;;;;5032800;28;20429;-75
2024/02/11 02:38:51;;;;;;;55.25;34.78;;;12.30;99.90;;;;;;5031992;28;20108;-76
2024/02/11 02:41:22;;;;;;;78.78;39.35;;;12.30;99.90;;;;;;5031777;28;20029;-75
2024/02/11 02:43:48;;;;;;;59.40;37.47;;;12.30;99.90;;;;;;5012823;28;20092;-75
2024/02/11 02:46:14;;;;;;;63.95;37.30;;;12.30;99.90;;;;;;5013764;28;20393;-75
2024/02/11 02:48:40;;;;;;;62.08;34.53;;;12.30;99.90;;;;;;5013960;28;20025;-75
2024/02/11 02:51:06;;;;;;;51.25;32.65;;;12.30;99.90;;;;;;5012943;28;20515;-75
2024/02/11 02:53:31;;;;;;;61.70;35.33;;;12.30;99.90;;;;;;5013773;28;20471;-74
2024/02/11 02:55:57;;;;;;;56.92;33.63;;;12.30;99.90;;;;;;5012267;28;20049;-75
2024/02/11 02:58:23;;;;;;;56.03;35.00;;;12.30;99.90;;;;;;5012319;28;20062;-76
2024/02/11 03:00:49;;;;;;;75.55;37.78;;;12.30;99.90;;;;;;5012259;28;20056;-75
2024/02/11 03:03:17;;;;;;;58.55;33.83;;;12.30;99.90;;;;;;5012222;28;20391;-75
2024/02/11 03:05:45;;;;;;;59.78;34.78;;;12.20;99.90;;;;;;5013460;28;20026;-75
2024/02/11 03:08:12;;;;;;;69.05;38.28;;;12.20;99.90;;;;;;5013509;28;20018;-75
2024/02/11 03:10:38;;;;;;;67.55;36.70;;;12.30;99.90;;;;;;5012174;28;20022;-72
2024/02/11 03:13:04;;;;;;;57.50;33.05;;;12.30;99.90;;;;;;5012642;28;20041;-74
2024/02/11 03:15:30;;;;;;;57.92;34.17;;;12.30;99.90;;;;;;5013578;28;20014;-75
2024/02/11 03:17:55;;;;;;;54.60;31.75;;;12.30;99.90;;;;;;5013422;28;20038;-75
2024/02/11 03:20:21;;;;;;;56.45;31.83;;;12.30;99.90;;;;;;5013143;28;20482;-71
2024/02/11 03:22:47;;;;;;;58.45;34.97;;;12.30;99.90;;;;;;5013036;28;20084;-72
2024/02/11 03:25:14;;;;;;;54.30;31.98;;;12.30;99.90;;;;;;5013274;28;20018;-72
2024/02/11 03:27:41;;;;;;;46.22;29.20;;;12.30;99.90;;;;;;5012202;28;20026;-72
2024/02/11 03:30:08;;;;;;;53.10;31.92;;;12.30;99.90;;;;;;5011881;28;20386;-72
2024/02/11 03:32:34;;;;;;;48.45;31.08;;;12.30;99.90;;;;;;5011367;28;20029;-73
2024/02/11 03:35:00;;;;;;;51.30;30.42;;;12.20;99.90;;;;;;5012618;28;20026;-74
2024/02/11 03:37:32;;;;;;;49.35;30.30;;;12.30;99.90;;;;;;5011104;28;20194;-72
2024/02/11 03:39:57;;;;;;;46.67;27.98;;;12.20;99.90;;;;;;5013265;28;20167;-75
2024/02/11 03:42:23;;;;;;;40.60;25.77;;;12.20;99.90;;;;;;5019473;28;20021;-75
2024/02/11 03:44:49;;;;;;;42.13;24.65;;;12.20;99.90;;;;;;5032440;28;20716;-75
2024/02/11 03:47:14;;;;;;;41.03;24.80;;;12.20;99.90;;;;;;5032651;28;20104;-74
2024/02/11 03:49:40;;;;;;;49.50;28.55;;;12.20;99.90;;;;;;5032291;28;20125;-75
2024/02/11 03:52:05;;;;;;;56.65;27.70;;;12.20;99.90;;;;;;5031361;28;20029;-75
2024/02/11 03:54:31;;;;;;;43.97;24.23;;;12.20;99.90;;;;;;5032780;28;20025;-75
2024/02/11 03:56:57;;;;;;;42.92;25.45;;;12.20;99.90;;;;;;5032089;28;20038;-75
2024/02/11 03:59:22;;;;;;;40.30;24.63;;;12.30;99.90;;;;;;5031457;28;20034;-72
2024/02/11 04:01:48;;;;;;;48.90;25.02;;;12.30;99.90;;;;;;5032008;28;20037;-75
2024/02/11 04:04:14;;;;;;;36.53;21.13;;;12.20;99.90;;;;;;5030034;28;20053;-75
2024/02/11 04:06:41;;;;;;;42.78;22.08;;;12.20;99.90;;;;;;5032349;28;20032;-75
2024/02/11 04:09:08;;;;;;;38.83;20.95;;;12.20;99.90;;;;;;5032396;28;20017;-74
2024/02/11 04:11:35;;;;;;;34.95;19.27;;;12.10;99.90;;;;;;5032277;28;20033;-75
2024/02/11 04:14:01;;;;;;;31.20;17.52;;;12.10;99.90;;;;;;5032462;28;20018;-75
2024/02/11 04:16:28;;;;;;;28.70;17.73;;;12.10;99.90;;;;;;5031439;28;20108;-73
2024/02/11 04:18:53;;;;;;;26.10;15.90;;;12.10;99.90;;;;;;5031984;28;20556;-75
2024/02/11 04:21:22;;;;;;;31.10;17.60;;;12.20;99.90;;;;;;5032104;28;20033;-76
2024/02/11 04:23:48;;;;;;;33.88;19.08;;;12.20;99.90;;;;;;5037569;28;20032;-75
2024/02/11 04:26:17;;;;;;;28.15;17.33;;;12.10;99.90;;;;;;5037145;28;20683;-76
2024/02/11 04:28:47;;;;;;;21.80;14.32;;;12.10;99.90;;;;;;5038425;28;20505;-75
2024/02/11 04:31:13;;;;;;;15.82;10.90;;;12.10;99.90;;;;;;5038294;28;20025;-77
2024/02/11 04:33:39;;;;;;;13.65;9.10;;;12.00;99.90;;;;;;5037624;28;20553;-77
2024/02/11 04:36:11;;;;;;;16.65;9.90;;;12.00;99.90;;;;;;5038782;28;20040;-76
2024/02/11 04:38:37;;;;;;;13.95;9.27;;;12.00;99.90;;;;;;5037798;28;20033;-75
2024/02/11 04:41:04;;;;;;;14.80;8.90;;;11.80;99.90;;;;;;5038552;28;20360;-76
2024/02/11 04:43:34;;;;;;;14.18;8.60;;;11.90;99.90;;;;;;5038677;28;20024;-76
2024/02/11 04:46:02;;;;;;;12.68;8.60;;;11.90;99.90;;;;;;5038594;28;20478;-75
2024/02/11 04:48:29;;;;;;;10.10;7.55;;;11.80;99.90;;;;;;5036924;28;20029;-76
2024/02/11 04:50:57;;;;;;;9.45;6.78;;;11.70;99.90;;;;;;5038291;28;20077;-75
2024/02/11 04:53:22;;;;;;;11.00;6.93;;;11.60;99.90;;;;;;5038437;28;20029;-77
2024/02/11 04:55:50;;;;;;;12.70;7.28;;;11.60;99.90;;;;;;5038290;28;20021;-76
2024/02/11 04:58:19;;;;;;;10.98;7.43;;;11.60;99.90;;;;;;5038351;28;20057;-75
2024/02/11 05:00:49;;;;;;;9.52;6.82;;;11.60;99.90;;;;;;5038433;28;20029;-74
2024/02/11 05:03:17;;;;;;;9.90;6.95;;;11.40;99.90;;;;;;5038040;28;20029;-74
2024/02/11 05:05:44;;;;;;;12.82;8.07;;;11.30;99.90;;;;;;5037536;28;20079;-72
2024/02/11 05:08:10;;;;;;;10.50;7.35;;;11.40;99.90;;;;;;5038349;28;20029;-76
2024/02/11 05:10:39;;;;;;;11.60;7.38;;;11.40;99.90;;;;;;5036983;28;20050;-76
2024/02/11 05:13:08;;;;;;;12.98;8.70;;;11.40;99.90;;;;;;5036611;28;20088;-76
2024/02/11 05:15:37;;;;;;;13.50;7.88;;;11.30;99.90;;;;;;5037830;28;20033;-77
2024/02/11 05:18:03;;;;;;;16.33;8.77;;;11.10;99.90;;;;;;5037817;28;20041;-76
2024/02/11 05:20:29;;;;;;;14.15;8.77;;;11.00;99.90;;;;;;5038346;28;20146;-76
2024/02/11 05:22:58;;;;;;;16.15;9.50;;;11.00;99.90;;;;;;5035969;28;20088;-77
2024/02/11 05:25:26;;;;;;;13.18;8.05;;;11.00;99.90;;;;;;5038503;28;20026;-76
2024/02/11 05:28:02;;;;;;;18.90;8.50;;;10.90;99.90;;;;;;5038146;28;20071;-74
2024/02/11 05:30:42;;;;;;;15.95;9.13;;;11.00;99.90;;;;;;5037088;28;20510;-73
2024/02/11 05:33:10;;;;;;;16.95;7.68;;;10.90;99.90;;;;;;5036582;28;20518;-76
2024/02/11 05:35:37;;;;;;;14.80;9.15;;;10.90;99.90;;;;;;5033472;28;20025;-76
2024/02/11 05:38:06;;;;;;;15.05;8.18;;;11.00;99.90;;;;;;5035080;28;20033;-76
2024/02/11 05:40:35;;;;;;;15.43;8.27;;;11.00;99.90;;;;;;5034206;28;20212;-73
2024/02/11 05:43:01;;;;;;;19.63;8.15;;;11.00;99.90;;;;;;5034981;28;20053;-75
2024/02/11 05:45:27;;;;;;;17.80;8.35;;;10.90;99.90;;;;;;5034649;28;20030;-75
2024/02/11 05:47:54;;;;;;;16.42;8.43;;;10.90;99.90;;;;;;5034338;28;20029;-77
2024/02/11 05:50:21;;;;;;;16.27;8.65;;;11.00;99.90;;;;;;5033994;28;20021;-74
2024/02/11 05:52:47;;;;;;;15.23;8.18;;;11.00;99.90;;;;;;5034687;28;20030;-75
2024/02/11 05:55:18;;;;;;;13.63;7.70;;;11.10;99.90;;;;;;5034628;28;20478;-72
2024/02/11 05:57:45;;;;;;;13.60;7.25;;;11.10;99.90;;;;;;5033856;28;20404;-72
2024/02/11 06:00:13;;;;;;;16.50;7.32;;;11.10;99.90;;;;;;5034184;28;20018;-76
2024/02/11 06:02:44;;;;;;;15.00;7.07;;;11.10;99.90;;;;;;5034438;28;20037;-76
2024/02/11 06:05:12;;;;;;;14.38;6.82;;;11.20;99.90;;;;;;5033186;28;20018;-75
2024/02/11 06:07:39;;;;;;;14.00;6.28;;;11.10;99.90;;;;;;5034087;28;20017;-75
2024/02/11 06:10:05;;;;;;;11.27;6.15;;;11.20;99.90;;;;;;5033037;28;20026;-75
2024/02/11 06:12:32;;;;;;;16.95;5.80;;;11.20;99.90;;;;;;5033940;28;20026;-76
2024/02/11 06:14:58;;;;;;;16.05;5.32;;;11.10;99.90;;;;;;5033743;28;20021;-74
2024/02/11 06:17:25;;;;;;;13.07;4.40;;;11.10;99.90;;;;;;5034028;28;20037;-75
2024/02/11 06:19:53;;;;;;;13.10;5.15;;;11.10;99.90;;;;;;5034496;28;20018;-75
2024/02/11 06:22:19;;;;;;;16.08;5.75;;;11.10;99.90;;;;;;5032798;28;20025;-74
2024/02/11 06:24:46;;;;;;;19.50;5.50;;;11.00;99.90;;;;;;5032149;28;20040;-72
2024/02/11 06:27:12;;;;;;;15.88;5.30;;;11.00;99.90;;;;;;5033400;28;20096;-76
2024/02/11 06:29:41;;;;;;;13.93;5.30;;;11.10;99.90;;;;;;5033449;28;20108;-76
2024/02/11 06:32:08;;;;;;;18.35;5.03;;;11.10;99.90;;;;;;5033760;28;20057;-72
2024/02/11 06:34:36;;;;;;;16.48;5.30;;;11.10;99.90;;;;;;5034131;28;20049;-74
2024/02/11 06:37:03;;;;;;;18.38;5.47;;;11.10;99.90;;;;;;5033303;28;20032;-75
2024/02/11 06:39:29;;;;;;;20.67;5.07;;;11.10;99.90;;;;;;5032831;28;20087;-76
2024/02/11 06:41:58;;;;;;;13.10;4.80;;;11.10;99.90;;;;;;5032909;28;20022;-76
2024/02/11 06:44:26;;;;;;;20.67;5.20;;;11.00;99.90;;;;;;5032704;28;20037;-75
2024/02/11 06:46:58;;;;;;;20.15;6.57;;;11.10;99.90;;;;;;5031276;28;20029;-73
2024/02/11 06:49:24;;;;;;;23.77;6.20;;;11.00;99.90;;;;;;5023003;28;20030;-74
2024/02/11 06:51:55;;;;;;;20.23;8.18;;;11.00;99.90;;;;;;5029920;28;20049;-73
2024/02/11 06:54:22;;;;;;;23.05;8.63;;;11.00;99.90;;;;;;5033749;28;20021;-75
2024/02/11 06:56:49;;;;;;;22.83;8.77;;;10.90;99.90;;;;;;5032834;28;20032;-72
2024/02/11 06:59:17;;;;;;;24.23;8.23;;;10.90;99.90;;;;;;5032307;28;20022;-75
2024/02/11 07:01:43;;;;;;;27.27;9.43;;;11.00;99.90;;;;;;5032422;28;20029;-74
2024/02/11 07:04:12;;;;;;;27.85;9.68;;;11.00;99.90;;;;;;5032984;28;20375;-76
2024/02/11 07:06:45;;;;;;;27.00;10.45;;;10.90;99.90;;;;;;5032989;28;20033;-73
2024/02/11 07:09:12;;;;;;;24.88;10.23;;;10.90;99.90;;;;;;5032975;28;20529;-72
2024/02/11 07:11:40;;;;;;;25.63;10.38;;;10.80;99.90;;;;;;5030751;28;20045;-74
2024/02/11 07:14:07;;;;;;;23.40;10.50;;;11.00;99.90;;;;;;5019392;28;20029;-72
2024/02/11 07:16:37;;;;;;;25.90;11.25;;;11.00;99.90;;;;;;5032888;28;20022;-75
2024/02/11 07:19:04;;;;;;;28.65;11.55;;;11.00;99.90;;;;;;5026781;28;20034;-71
2024/02/11 07:21:34;;;;;;;34.20;12.27;;;10.90;99.90;;;;;;5032490;28;20018;-70
2024/02/11 07:24:00;;;;;;;34.15;12.23;;;10.90;99.90;;;;;;5032733;28;20017;-71
2024/02/11 07:26:26;;;;;;;32.60;12.60;;;11.00;99.90;;;;;;5032292;28;20033;-71
2024/02/11 07:28:53;;;;;;;26.08;11.15;;;10.90;99.90;;;;;;5031411;28;20060;-73
2024/02/11 07:31:19;;;;;;;28.55;12.65;;;11.00;99.90;;;;;;5031290;28;20113;-71
2024/02/11 07:33:45;;;;;;;31.38;12.38;;;11.00;99.90;;;;;;5019659;28;20485;-72
2024/02/11 07:36:10;;;;;;;29.88;13.35;;;10.90;99.90;;;;;;5030212;28;20014;-73
2024/02/11 07:38:36;;;;;;;30.95;12.90;;;10.90;99.90;;;;;;5024572;28;20045;-72
2024/02/11 07:41:03;;;;;;;27.42;11.82;;;10.90;99.90;;;;;;5032344;28;20418;-72
2024/02/11 07:43:31;;;;;;;34.90;12.90;;;10.90;99.90;;;;;;5031897;28;20025;-73
2024/02/11 07:45:57;;;;;;;30.88;12.35;;;10.90;99.90;;;;;;5032618;28;20057;-72
2024/02/11 07:48:25;;;;;;;36.47;12.90;;;11.00;99.90;;;;;;5032407;28;20037;-73
2024/02/11 07:50:51;;;;;;;32.75;12.35;;;11.00;99.90;;;;;;5019493;28;20030;-72
2024/02/11 07:53:19;;;;;;;29.40;12.77;;;11.00;99.90;;;;;;5030677;28;20021;-72
2024/02/11 07:55:45;;;;;;;24.85;12.55;;;10.90;99.90;;;;;;5030966;28;20493;-72
2024/02/11 07:58:11;;;;;;;30.88;12.98;;;11.00;99.90;;;;;;5029858;28;20076;-72
2024/02/11 08:00:37;;;;;;;32.13;12.02;;;10.90;99.90;;;;;;5031634;28;20036;-72
2024/02/11 08:03:04;;;;;;;27.92;11.60;;;11.00;99.90;;;;;;5032264;28;20356;-72
2024/02/11 08:05:30;;;;;;;33.20;13.43;;;11.00;99.90;;;;;;5032181;28;20068;-73
2024/02/11 08:07:56;;;;;;;24.80;12.60;;;11.00;99.90;;;;;;5032350;28;20025;-72
2024/02/11 08:10:22;;;;;;;27.98;12.48;;;11.00;99.90;;;;;;5031089;28;20032;-72
2024/02/11 08:12:49;;;;;;;32.72;11.52;;;11.00;99.90;;;;;;5031816;28;20128;-72
2024/02/11 08:15:15;;;;;;;29.85;12.57;;;11.00;99.90;;;;;;5030441;28;20029;-73
2024/02/11 08:17:41;;;;;;;30.45;12.40;;;11.10;99.90;;;;;;5030648;28;20029;-72
2024/02/11 08:20:08;;;;;;;30.05;11.63;;;11.20;99.90;;;;;;5032133;28;20049;-72
2024/02/11 08:22:36;;;;;;;30.92;12.80;;;11.20;99.90;;;;;;5032340;28;20022;-73
2024/02/11 08:25:08;;;;;;;28.63;12.27;;;11.20;99.90;;;;;;5030368;28;20037;-73
2024/02/11 08:27:35;;;;;;;27.08;12.20;;;11.20;99.90;;;;;;5031072;28;20052;-72
2024/02/11 08:30:01;;;;;;;28.80;12.40;;;11.10;99.90;;;;;;5032030;28;20026;-72
2024/02/11 08:32:27;;;;;;;26.98;12.85;;;11.10;99.90;;;;;;5032099;28;20092;-72
2024/02/11 08:34:53;;;;;;;41.25;14.63;;;11.10;99.90;;;;;;5032033;28;20406;-73
2024/02/11 08:37:18;;;;;;;30.13;12.38;;;11.20;99.90;;;;;;5031269;28;20030;-74
2024/02/11 08:39:45;;;;;;;27.77;11.15;;;11.20;99.90;;;;;;5031591;28;20025;-73
2024/02/11 08:42:11;;;;;;;29.73;12.50;;;11.30;99.90;;;;;;5029406;28;20018;-73
2024/02/11 08:44:36;;;;;;;27.05;12.48;;;11.30;99.90;;;;;;5017179;28;20037;-71
2024/02/11 08:47:03;;;;;;;29.33;11.77;;;11.30;99.90;;;;;;5022355;28;20497;-73
2024/02/11 08:49:29;;;;;;;25.40;11.93;;;11.30;99.90;;;;;;5031700;28;20071;-73
2024/02/11 08:51:55;;;;;;;25.05;11.98;;;11.20;99.90;;;;;;5030688;28;20021;-72
2024/02/11 08:54:21;;;;;;;24.83;11.70;;;11.20;99.90;;;;;;5031215;28;20462;-72
2024/02/11 08:56:47;;;;;;;18.85;10.85;;;11.30;99.90;;;;;;5031212;28;20017;-71
2024/02/11 08:59:13;;;;;;;27.38;11.32;;;11.40;99.90;;;;;;5031482;28;20026;-71
2024/02/11 09:01:40;;;;;;;27.02;11.82;;;11.30;99.90;;;;;;5031743;28;20033;-73
2024/02/11 09:04:06;;;;;;;25.23;11.02;;;11.30;99.90;;;;;;5030810;28;20021;-72
2024/02/11 09:06:34;;;;;;;31.95;11.77;;;11.30;99.90;;;;;;5031389;28;20020;-70
2024/02/11 09:09:00;;;;;;;31.80;11.52;;;11.20;99.90;;;;;;5031722;28;20049;-71
2024/02/11 09:11:25;;;;;;;28.70;11.52;;;11.20;99.90;;;;;;5034029;28;20032;-71
2024/02/11 09:13:52;;;;;;;26.63;11.23;;;11.20;99.90;;;;;;5033199;28;20017;-70
2024/02/11 09:16:19;;;;;;;31.85;10.35;;;11.20;99.90;;;;;;5035119;28;20045;-71
2024/02/11 09:18:44;;;;;;;30.27;11.02;;;11.30;99.90;;;;;;5033509;28;20039;-73
2024/02/11 09:21:11;;;;;;;28.40;11.15;;;11.40;99.90;;;;;;5034469;28;20018;-74
2024/02/11 09:23:37;;;;;;;20.38;11.10;;;11.40;99.90;;;;;;5030628;28;20722;-72
2024/02/11 09:26:03;;;;;;;22.30;12.00;;;11.40;99.90;;;;;;5032487;28;20144;-73
2024/02/11 09:28:29;;;;;;;22.90;10.65;;;11.40;99.90;;;;;;5022800;28;20088;-73
2024/02/11 09:30:55;;;;;;;25.05;11.45;;;11.30;99.90;;;;;;5025233;28;20026;-73
2024/02/11 09:33:21;;;;;;;29.15;11.90;;;11.40;99.90;;;;;;5030861;28;20049;-73
2024/02/11 09:35:47;;;;;;;24.52;10.18;;;11.40;99.90;;;;;;5021262;28;20025;-71
2024/02/11 09:38:15;;;;;;;26.95;10.30;;;11.40;99.90;;;;;;5031149;28;20152;-70
2024/02/11 09:40:40;;;;;;;28.17;11.23;;;11.40;99.90;;;;;;5031368;28;20051;-73
2024/02/11 09:43:07;;;;;;;29.42;9.77;;;11.40;99.90;;;;;;5033356;28;20525;-73
2024/02/11 09:45:35;;;;;;;25.95;9.88;;;11.50;99.90;;;;;;5030881;28;20017;-72
2024/02/11 09:48:04;;;;;;;22.45;8.98;;;11.50;99.90;;;;;;5040600;28;20025;-72
2024/02/11 09:50:30;;;;;;;26.23;9.73;;;11.60;99.90;;;;;;5036540;28;20032;-73
2024/02/11 09:52:56;;;;;;;23.88;9.15;;;11.70;99.90;;;;;;5033832;28;20025;-72
2024/02/11 09:55:22;;;;;;;25.38;9.57;;;11.50;99.90;;;;;;5038588;28;20104;-72
2024/02/11 09:57:48;;;;;;;25.42;8.57;;;11.50;99.90;;;;;;5034524;28;20029;-73
2024/02/11 10:00:15;;;;;;;22.75;8.70;;;11.60;99.90;;;;;;5034298;28;20056;-72
2024/02/11 10:02:44;;;;;;;29.85;8.70;;;11.50;99.90;;;;;;5034128;28;20501;-72
2024/02/11 10:05:11;;;;;;;23.70;8.00;;;11.60;99.90;;;;;;5035406;28;20028;-72
2024/02/11 10:07:47;;;;;;;22.90;7.97;;;11.60;99.90;;;;;;5034043;28;20072;-72
2024/02/11 10:10:14;;;;;;;20.33;7.65;;;11.60;99.90;;;;;;5034293;28;20025;-71
2024/02/11 10:12:41;;;;;;;28.20;8.05;;;11.70;99.90;;;;;;5034186;28;20025;-72
2024/02/11 10:15:16;;;;;;;25.38;7.30;;;11.70;99.90;;;;;;5032911;28;20013;-71
2024/02/11 10:17:42;;;;;;;19.40;7.13;;;11.80;99.90;;;;;;5034145;28;20029;-72
2024/02/11 10:20:12;;;;;;;17.30;6.50;;;11.70;99.90;;;;;;5033669;28;20029;-72
2024/02/11 10:22:38;;;;;;;25.23;7.07;;;11.70;99.90;;;;;;5032513;28;20116;-71
2024/02/11 10:25:09;;;;;;;22.48;7.57;;;11.70;99.90;;;;;;5034063;28;20071;-71
2024/02/11 10:27:36;;;;;;;19.00;7.03;;;11.80;99.90;;;;;;5032920;28;20024;-72
2024/02/11 10:30:05;;;;;;;21.92;6.72;;;11.90;99.90;;;;;;5034202;28;20025;-72
2024/02/11 10:32:34;;;;;;;18.13;6.65;;;11.90;99.90;;;;;;5033909;28;20033;-72
2024/02/11 10:35:04;;;;;;;20.55;6.88;;;12.00;99.90;;;;;;5032740;28;20021;-71
2024/02/11 10:37:43;;;;;;;16.02;5.72;;;12.00;99.90;;;;;;5033878;28;20041;-72
2024/02/11 10:40:11;;;;;;;12.98;5.35;;;12.00;99.90;;;;;;5033833;28;20045;-71
2024/02/11 10:42:41;;;;;;;24.88;6.90;;;12.10;99.90;;;;;;5032245;28;20022;-71
2024/02/11 10:45:09;;;;;;;26.85;7.07;;;12.10;99.90;;;;;;5034006;28;20023;-72
2024/02/11 10:47:36;;;;;;;20.00;6.15;;;12.20;99.90;;;;;;5033650;28;20017;-71
2024/02/11 10:50:05;;;;;;;19.65;6.40;;;12.10;99.90;;;;;;5033606;28;20029;-71
2024/02/11 10:52:36;;;;;;;18.42;6.03;;;12.10;99.90;;;;;;5033400;28;20009;-73
2024/02/11 10:55:02;;;;;;;23.00;6.45;;;12.20;99.90;;;;;;5033583;28;20087;-72
2024/02/11 10:57:39;;;;;;;16.02;5.90;;;12.10;99.90;;;;;;5033436;28;20068;-72
2024/02/11 11:00:07;;;;;;;15.05;5.85;;;12.20;99.90;;;;;;5033667;28;20025;-73
2024/02/11 11:02:36;;;;;;;21.75;5.25;;;12.30;99.90;;;;;;5032104;28;20698;-71
2024/02/11 11:05:06;;;;;;;16.13;5.05;;;12.50;99.90;;;;;;5033350;28;20026;-72
2024/02/11 11:07:36;;;;;;;19.80;5.95;;;12.60;99.90;;;;;;5033168;28;20029;-72
2024/02/11 11:10:10;;;;;;;20.63;5.10;;;12.60;99.90;;;;;;5033159;28;20562;-72
2024/02/11 11:12:46;;;;;;;16.05;4.93;;;12.70;99.90;;;;;;5033250;28;20029;-71
2024/02/11 11:15:12;;;;;;;16.30;4.68;;;12.80;99.90;;;;;;5032785;28;20025;-72
2024/02/11 11:17:37;;;;;;;12.00;4.72;;;12.70;99.90;;;;;;5031796;28;20060;-73
2024/02/11 11:20:12;;;;;;;17.48;5.55;;;12.70;99.90;;;;;;5032869;28;20524;-72
2024/02/11 11:22:39;;;;;;;15.15;4.90;;;12.80;99.90;;;;;;5035882;28;20109;-72
2024/02/11 11:25:14;;;;;;;12.30;4.43;;;12.90;99.90;;;;;;5032826;28;20055;-72
2024/02/11 11:27:39;;;;;;;12.80;4.53;;;12.90;99.90;;;;;;5033064;28;20029;-72
2024/02/11 11:30:07;;;;;;;15.82;4.78;;;12.90;99.90;;;;;;5031831;28;20033;-71
2024/02/11 11:32:36;;;;;;;18.35;4.15;;;13.00;99.90;;;;;;5031598;28;20028;-72
2024/02/11 11:35:03;;;;;;;13.40;4.32;;;12.90;99.90;;;;;;5032551;28;20108;-73
2024/02/11 11:37:29;;;;;;;10.90;4.30;;;12.80;99.90;;;;;;5032280;28;20478;-73
2024/02/11 11:39:57;;;;;;;12.02;3.90;;;12.80;99.90;;;;;;5032322;28;20056;-72
2024/02/11 11:42:22;;;;;;;17.90;4.60;;;12.90;99.90;;;;;;5032339;28;20021;-73
2024/02/11 11:44:48;;;;;;;11.40;4.07;;;12.90;99.90;;;;;;5030059;28;20462;-72
2024/02/11 11:47:13;;;;;;;11.93;3.67;;;12.90;99.90;;;;;;5031121;28;20033;-72
2024/02/11 11:49:40;;;;;;;12.30;4.07;;;13.00;99.90;;;;;;5030224;28;20567;-72
2024/02/11 11:52:08;;;;;;;14.00;3.85;;;13.10;99.90;;;;;;5031959;28;20083;-72
2024/02/11 11:54:34;;;;;;;13.80;4.15;;;13.00;99.90;;;;;;5032224;28;20127;-72
2024/02/11 11:57:01;;;;;;;12.25;4.05;;;12.90;99.90;;;;;;5031770;28;20105;-72
2024/02/11 11:59:27;;;;;;;17.58;3.83;;;13.00;99.90;;;;;;5030784;28;20057;-72
2024/02/11 12:01:55;;;;;;;14.02;4.03;;;12.90;99.90;;;;;;5031839;28;20038;-70
2024/02/11 12:04:22;;;;;;;18.00;4.95;;;12.90;99.90;;;;;;4982100;28;20033;-72
2024/02/11 12:06:48;;;;;;;10.20;3.65;;;12.90;99.90;;;;;;5020780;28;20025;-72
2024/02/11 12:09:14;;;;;;;16.90;4.38;;;12.90;99.90;;;;;;5039764;28;20027;-71
2024/02/11 12:11:48;;;;;;;11.70;4.15;;;12.90;99.90;;;;;;5039079;28;20393;-74
2024/02/11 12:14:15;;;;;;;17.42;4.68;;;12.90;99.90;;;;;;5038189;28;20025;-74
2024/02/11 12:16:42;;;;;;;10.05;3.10;;;12.90;99.90;;;;;;5035382;28;20016;-73
2024/02/11 12:19:10;;;;;;;10.30;3.53;;;12.80;99.90;;;;;;5037047;28;20490;-75
2024/02/11 12:21:36;;;;;;;7.68;2.85;;;12.70;99.90;;;;;;5036279;28;20021;-73
2024/02/11 12:24:08;;;;;;;16.83;3.17;;;12.90;99.90;;;;;;5029761;28;20021;-74
2024/02/11 12:26:35;;;;;;;12.00;3.00;;;12.90;99.90;;;;;;5037595;28;20041;-74
2024/02/11 12:29:01;;;;;;;11.02;2.90;;;12.90;99.90;;;;;;5037005;28;20177;-74
2024/02/11 12:31:27;;;;;;;6.88;2.47;;;13.10;99.90;;;;;;5033978;28;20438;-75